Time;durP1;ratioP1;P1;durP2;ratioP2;P2;SDS_P1;SDS_P2;PMS_P1;PMS_P2;Temp;Humidity;BMP_temperature;BMP_pressure;BME280_temperature;BME280_humidity;BME280_pressure;Samples;Min_cycle;Max_cycle;Signal;HPM_P1;HPM_P2
2023/05/21 00:00:11;;;;;;;4.97;3.13;;;13.90;99.90;;;;;;5071413;28;20545;-80
2023/05/21 00:02:38;;;;;;;10.27;3.05;;;13.90;99.90;;;;;;5055807;28;20043;-81
2023/05/21 00:05:10;;;;;;;4.97;2.83;;;13.90;99.90;;;;;;5055272;28;20577;-81
2023/05/21 00:07:36;;;;;;;7.85;2.80;;;13.90;99.90;;;;;;5056238;28;20044;-81
2023/05/21 00:10:04;;;;;;;6.75;3.40;;;13.90;99.90;;;;;;5045240;28;20128;-81
2023/05/21 00:12:31;;;;;;;5.65;2.80;;;13.90;99.90;;;;;;5071667;28;20122;-81
2023/05/21 00:14:58;;;;;;;6.00;3.33;;;13.90;99.90;;;;;;5055484;28;20076;-80
2023/05/21 00:17:25;;;;;;;10.25;3.35;;;13.90;99.90;;;;;;5071347;28;20049;-81
2023/05/21 00:19:51;;;;;;;6.55;3.35;;;13.90;99.90;;;;;;5055526;28;20393;-80
2023/05/21 00:22:19;;;;;;;6.47;3.35;;;13.80;99.90;;;;;;5071562;28;20084;-81
2023/05/21 00:24:45;;;;;;;7.38;3.50;;;13.80;99.90;;;;;;5071814;28;20051;-81
2023/05/21 00:27:12;;;;;;;6.07;3.30;;;13.80;99.90;;;;;;5054837;28;20464;-81
2023/05/21 00:29:39;;;;;;;6.18;3.03;;;13.90;99.90;;;;;;5071259;28;20052;-81
2023/05/21 00:32:06;;;;;;;8.43;2.97;;;13.80;99.90;;;;;;5088897;28;20523;-80
2023/05/21 00:34:33;;;;;;;5.72;3.33;;;13.80;99.90;;;;;;5038716;28;20127;-81
2023/05/21 00:37:01;;;;;;;5.65;3.05;;;13.80;99.90;;;;;;5071376;28;20041;-81
2023/05/21 00:39:28;;;;;;;7.47;3.20;;;13.80;99.90;;;;;;5054734;28;20094;-81
2023/05/21 00:41:55;;;;;;;5.95;3.35;;;13.80;99.90;;;;;;5067287;28;20044;-80
2023/05/21 00:44:22;;;;;;;6.63;3.30;;;13.80;99.90;;;;;;5074619;28;20051;-81
2023/05/21 00:46:52;;;;;;;6.97;3.50;;;13.80;99.90;;;;;;5090691;28;20040;-80
2023/05/21 00:49:21;;;;;;;8.52;3.53;;;13.70;99.90;;;;;;5091530;28;20040;-81
2023/05/21 00:51:48;;;;;;;7.57;3.53;;;13.80;99.90;;;;;;5091195;28;20123;-81
2023/05/21 00:54:15;;;;;;;11.27;3.60;;;13.70;99.90;;;;;;5090572;28;20098;-80
2023/05/21 00:56:41;;;;;;;5.68;3.15;;;13.70;99.90;;;;;;5057885;28;20052;-80
2023/05/21 00:59:08;;;;;;;6.00;3.83;;;13.80;99.90;;;;;;5074452;28;20044;-80
2023/05/21 01:01:35;;;;;;;9.98;3.53;;;13.70;99.90;;;;;;5072620;28;20083;-81
2023/05/21 01:04:02;;;;;;;7.82;3.70;;;13.70;99.90;;;;;;5043867;28;20052;-81
2023/05/21 01:06:33;;;;;;;6.00;3.50;;;13.70;99.90;;;;;;5077107;28;20519;-81
2023/05/21 01:09:03;;;;;;;7.85;3.38;;;13.70;99.90;;;;;;5086773;28;20041;-81
2023/05/21 01:11:50;;;;;;;7.45;3.72;;;13.70;99.90;;;;;;5090716;28;20067;-81
2023/05/21 01:14:18;;;;;;;6.93;3.63;;;13.70;99.90;;;;;;5074187;28;20056;-81
2023/05/21 01:16:48;;;;;;;7.30;3.97;;;13.60;99.90;;;;;;5074216;28;20500;-81
2023/05/21 01:19:18;;;;;;;8.15;3.35;;;13.60;99.90;;;;;;5089877;28;20041;-81
2023/05/21 01:21:55;;;;;;;7.03;3.63;;;13.60;99.90;;;;;;5090461;28;20817;-81
2023/05/21 01:24:22;;;;;;;8.48;3.47;;;13.60;99.90;;;;;;5090702;28;20044;-80
2023/05/21 01:26:48;;;;;;;8.00;3.60;;;13.60;99.90;;;;;;5090576;28;20043;-81
2023/05/21 01:29:15;;;;;;;8.32;3.50;;;13.60;99.90;;;;;;5056362;28;20496;-81
2023/05/21 01:32:10;;;;;;;11.05;3.60;;;13.50;99.90;;;;;;5073798;28;20033;-81
2023/05/21 01:34:46;;;;;;;7.72;3.70;;;13.60;99.90;;;;;;5090156;28;20518;-80
2023/05/21 01:37:34;;;;;;;8.48;3.95;;;13.50;99.90;;;;;;5090352;28;20400;-81
2023/05/21 01:40:15;;;;;;;6.65;3.63;;;13.50;99.90;;;;;;5074648;28;20167;-81
2023/05/21 01:42:44;;;;;;;8.80;3.92;;;13.50;99.90;;;;;;5090005;28;20493;-80
2023/05/21 01:45:13;;;;;;;7.35;3.85;;;13.50;99.90;;;;;;5106893;28;20052;-80
2023/05/21 01:47:40;;;;;;;8.55;3.42;;;13.50;99.90;;;;;;5073596;28;20043;-80
2023/05/21 01:50:08;;;;;;;6.38;3.50;;;13.50;99.90;;;;;;5065720;28;20044;-81
2023/05/21 01:52:35;;;;;;;8.55;3.65;;;13.50;99.90;;;;;;5053157;28;20118;-80
2023/05/21 01:55:02;;;;;;;7.70;3.33;;;13.50;99.90;;;;;;5086681;28;20045;-80
2023/05/21 01:57:30;;;;;;;9.35;3.92;;;13.50;99.90;;;;;;5068750;28;20837;-80
2023/05/21 01:59:57;;;;;;;9.77;3.83;;;13.50;99.90;;;;;;5069940;28;20048;-81
2023/05/21 02:02:24;;;;;;;8.43;3.50;;;13.50;99.90;;;;;;5036717;28;20073;-80
2023/05/21 02:04:51;;;;;;;9.15;3.45;;;13.50;99.90;;;;;;5069541;28;20461;-80
2023/05/21 02:07:18;;;;;;;7.97;3.53;;;13.50;99.90;;;;;;5069589;28;20127;-81
2023/05/21 02:09:45;;;;;;;7.38;3.13;;;13.50;99.90;;;;;;5069952;28;20047;-80
2023/05/21 02:12:11;;;;;;;10.85;3.33;;;13.50;99.90;;;;;;5072785;28;20123;-81
2023/05/21 02:14:38;;;;;;;7.60;3.65;;;13.50;99.90;;;;;;5088798;28;20090;-80
2023/05/21 02:17:06;;;;;;;7.15;3.42;;;13.50;99.90;;;;;;5052631;28;20048;-81
2023/05/21 02:19:33;;;;;;;6.35;3.05;;;13.40;99.90;;;;;;5036869;28;20083;-80
2023/05/21 02:22:00;;;;;;;8.70;3.65;;;13.40;99.90;;;;;;5065725;28;20076;-80
2023/05/21 02:24:27;;;;;;;8.00;3.80;;;13.40;99.90;;;;;;5104867;28;20033;-80
2023/05/21 02:26:53;;;;;;;8.90;3.17;;;13.40;99.90;;;;;;5037414;28;20560;-80
2023/05/21 02:29:20;;;;;;;6.88;3.50;;;13.40;99.90;;;;;;5052560;28;20049;-81
2023/05/21 02:31:47;;;;;;;6.72;3.42;;;13.40;99.90;;;;;;5040685;28;20036;-80
2023/05/21 02:34:13;;;;;;;7.82;3.17;;;13.40;99.90;;;;;;5085561;28;20040;-81
2023/05/21 02:36:40;;;;;;;5.93;3.35;;;13.40;99.90;;;;;;5068869;28;20489;-81
2023/05/21 02:39:07;;;;;;;8.00;3.67;;;13.30;99.90;;;;;;5052813;28;20044;-81
2023/05/21 02:41:33;;;;;;;7.30;3.47;;;13.30;99.90;;;;;;5052149;28;20048;-81
2023/05/21 02:44:00;;;;;;;11.55;3.80;;;13.20;99.90;;;;;;5063196;28;20405;-81
2023/05/21 02:46:27;;;;;;;8.52;3.30;;;13.20;99.90;;;;;;5052355;28;20043;-82
2023/05/21 02:48:53;;;;;;;9.20;3.20;;;13.20;99.90;;;;;;5052287;28;20413;-81
2023/05/21 02:51:20;;;;;;;9.90;3.70;;;13.20;99.90;;;;;;5052518;28;20512;-81
2023/05/21 02:53:47;;;;;;;7.43;3.72;;;13.20;99.90;;;;;;5046562;28;20102;-81
2023/05/21 02:56:14;;;;;;;9.15;3.90;;;13.20;99.90;;;;;;5072482;28;20147;-81
2023/05/21 02:58:40;;;;;;;9.25;3.85;;;13.20;99.90;;;;;;5088819;28;20040;-81
2023/05/21 03:01:07;;;;;;;8.10;3.30;;;13.10;99.90;;;;;;5089443;28;20040;-81
2023/05/21 03:03:34;;;;;;;7.32;3.22;;;13.10;99.90;;;;;;5068251;28;20041;-81
2023/05/21 03:06:00;;;;;;;13.13;4.03;;;13.10;99.90;;;;;;5052862;28;20072;-81
2023/05/21 03:08:29;;;;;;;7.35;3.70;;;13.10;99.90;;;;;;5052012;28;20547;-80
2023/05/21 03:10:55;;;;;;;8.07;3.78;;;13.00;99.90;;;;;;5056124;28;20103;-81
2023/05/21 03:13:22;;;;;;;8.80;3.63;;;13.00;99.90;;;;;;5039818;28;20033;-81
2023/05/21 03:15:49;;;;;;;8.40;3.28;;;13.00;99.90;;;;;;5097317;28;20090;-81
2023/05/21 03:18:15;;;;;;;8.35;4.10;;;13.00;99.90;;;;;;5076630;28;20055;-81
2023/05/21 03:20:45;;;;;;;9.32;3.85;;;12.90;99.90;;;;;;5092385;28;20082;-81
2023/05/21 03:23:12;;;;;;;8.57;4.00;;;12.90;99.90;;;;;;5076179;28;20033;-81
2023/05/21 03:25:39;;;;;;;6.55;3.45;;;12.90;99.90;;;;;;5083045;28;20565;-80
2023/05/21 03:28:06;;;;;;;8.18;3.75;;;12.90;99.90;;;;;;5092058;28;20032;-81
2023/05/21 03:30:32;;;;;;;6.45;3.75;;;12.90;99.90;;;;;;5092339;28;20473;-81
2023/05/21 03:32:59;;;;;;;8.52;3.58;;;12.90;99.90;;;;;;5058956;28;20032;-81
2023/05/21 03:35:25;;;;;;;10.30;3.67;;;12.90;99.90;;;;;;5072876;28;20040;-80
2023/05/21 03:37:52;;;;;;;8.32;3.58;;;12.90;99.90;;;;;;5055305;28;20120;-81
2023/05/21 03:40:20;;;;;;;8.00;3.92;;;12.90;99.90;;;;;;5072432;28;20037;-81
2023/05/21 03:42:47;;;;;;;9.80;3.67;;;12.90;99.90;;;;;;5072220;28;20114;-81
2023/05/21 03:45:14;;;;;;;7.07;3.70;;;12.90;99.90;;;;;;5039542;28;20045;-81
2023/05/21 03:47:41;;;;;;;11.40;3.63;;;12.90;99.90;;;;;;5106976;28;20041;-81
2023/05/21 03:50:09;;;;;;;8.48;3.40;;;12.80;99.90;;;;;;5059668;28;20040;-81
2023/05/21 03:52:36;;;;;;;6.93;3.88;;;12.80;99.90;;;;;;5091995;28;20057;-80
2023/05/21 03:55:03;;;;;;;7.95;3.42;;;12.80;99.90;;;;;;5058969;28;20048;-81
2023/05/21 03:57:29;;;;;;;8.82;3.53;;;12.90;99.90;;;;;;5058905;28;20048;-80
2023/05/21 03:59:57;;;;;;;6.72;3.65;;;12.90;99.90;;;;;;5091786;28;20053;-81
2023/05/21 04:02:27;;;;;;;6.80;3.53;;;12.90;99.90;;;;;;5075513;28;20131;-80
2023/05/21 04:04:54;;;;;;;11.57;3.88;;;12.90;99.90;;;;;;5091336;28;20036;-81
2023/05/21 04:07:21;;;;;;;8.70;3.00;;;12.90;99.90;;;;;;5091151;28;20043;-80
2023/05/21 04:09:47;;;;;;;7.03;3.50;;;12.90;99.90;;;;;;5074907;28;20408;-81
2023/05/21 04:12:14;;;;;;;8.00;3.40;;;12.90;99.90;;;;;;5074996;28;20041;-81
2023/05/21 04:14:41;;;;;;;7.68;3.25;;;12.90;99.90;;;;;;5091369;28;20097;-81
2023/05/21 04:17:07;;;;;;;7.90;3.17;;;12.90;99.90;;;;;;5074986;28;20476;-81
2023/05/21 04:19:34;;;;;;;6.80;3.30;;;12.90;99.90;;;;;;5075107;28;20040;-81
2023/05/21 04:22:01;;;;;;;12.95;3.67;;;12.90;99.90;;;;;;5057079;28;20511;-81
2023/05/21 04:24:28;;;;;;;8.38;3.30;;;12.90;99.90;;;;;;5075312;28;20558;-81
2023/05/21 04:26:56;;;;;;;7.95;3.65;;;12.90;99.90;;;;;;5073325;28;20048;-81
2023/05/21 04:29:24;;;;;;;7.47;3.47;;;12.90;99.90;;;;;;5074429;28;20045;-80
2023/05/21 04:31:51;;;;;;;6.28;3.10;;;13.00;99.90;;;;;;5075017;28;20041;-81
2023/05/21 04:34:18;;;;;;;6.93;3.60;;;13.00;99.90;;;;;;5074865;28;20037;-81
2023/05/21 04:36:45;;;;;;;7.68;3.60;;;13.00;99.90;;;;;;5091560;28;20044;-81
2023/05/21 04:39:12;;;;;;;7.93;3.22;;;13.00;99.90;;;;;;5090341;28;20063;-81
2023/05/21 04:41:39;;;;;;;5.38;3.08;;;13.00;99.90;;;;;;5072618;28;20045;-81
2023/05/21 04:44:09;;;;;;;7.30;3.20;;;13.00;99.90;;;;;;5054792;28;20143;-81
2023/05/21 04:46:36;;;;;;;7.63;3.40;;;13.00;99.90;;;;;;5071254;28;20394;-81
2023/05/21 04:49:03;;;;;;;6.32;3.15;;;13.00;99.90;;;;;;5063351;28;20089;-81
2023/05/21 04:51:30;;;;;;;8.00;3.17;;;12.90;99.90;;;;;;5107769;28;20051;-80
2023/05/21 04:53:57;;;;;;;5.93;3.25;;;13.00;99.90;;;;;;5074506;28;20484;-81
2023/05/21 04:56:25;;;;;;;7.03;2.97;;;13.00;99.90;;;;;;5091328;28;20064;-81
2023/05/21 04:58:53;;;;;;;7.72;3.10;;;13.10;99.90;;;;;;5073501;28;20041;-81
2023/05/21 05:01:25;;;;;;;11.02;3.17;;;13.00;99.90;;;;;;5074954;28;20408;-81
2023/05/21 05:03:52;;;;;;;8.73;3.15;;;13.00;99.90;;;;;;5107606;28;20044;-81
2023/05/21 05:06:20;;;;;;;8.40;2.97;;;13.00;99.90;;;;;;5090895;28;20147;-81
2023/05/21 05:08:46;;;;;;;7.75;3.00;;;13.00;99.90;;;;;;5089539;28;20041;-81
2023/05/21 05:11:13;;;;;;;7.22;3.15;;;13.00;99.90;;;;;;5053996;28;20049;-81
2023/05/21 05:13:42;;;;;;;6.53;2.65;;;13.00;99.90;;;;;;5054254;28;20123;-81
2023/05/21 05:16:10;;;;;;;8.07;3.08;;;13.00;99.90;;;;;;5070799;28;20547;-81
2023/05/21 05:18:36;;;;;;;6.50;3.20;;;13.00;99.90;;;;;;5070656;28;20120;-81
2023/05/21 05:21:03;;;;;;;8.35;2.88;;;13.00;99.90;;;;;;5053909;28;20159;-81
2023/05/21 05:23:30;;;;;;;10.02;3.05;;;13.00;99.90;;;;;;5053868;28;20106;-81
2023/05/21 05:25:56;;;;;;;6.90;2.88;;;13.00;99.90;;;;;;5070537;28;20052;-81
2023/05/21 05:28:23;;;;;;;5.95;3.22;;;13.00;99.90;;;;;;5054192;28;20111;-81
2023/05/21 05:30:50;;;;;;;7.45;2.90;;;13.10;99.90;;;;;;5081920;28;20040;-81
2023/05/21 05:33:16;;;;;;;6.20;3.28;;;13.10;99.90;;;;;;5057192;28;20036;-81
2023/05/21 05:35:43;;;;;;;5.95;2.75;;;13.10;99.90;;;;;;5073812;28;20076;-80
2023/05/21 05:38:10;;;;;;;5.90;3.05;;;13.10;99.90;;;;;;5056893;28;20043;-81
2023/05/21 05:40:36;;;;;;;7.32;2.72;;;13.10;99.90;;;;;;5085526;28;20036;-80
2023/05/21 05:43:03;;;;;;;7.55;3.00;;;13.10;99.90;;;;;;5053256;28;20037;-81
2023/05/21 05:45:30;;;;;;;8.65;3.38;;;13.10;99.90;;;;;;5070320;28;20041;-81
2023/05/21 05:47:56;;;;;;;8.18;3.42;;;13.10;99.90;;;;;;5069772;28;20763;-81
2023/05/21 05:50:23;;;;;;;7.80;3.00;;;13.10;99.90;;;;;;5069702;28;20390;-81
2023/05/21 05:52:50;;;;;;;6.03;2.97;;;13.10;99.90;;;;;;5072205;28;20097;-80
2023/05/21 05:55:16;;;;;;;8.65;3.05;;;13.20;99.90;;;;;;5106210;28;20041;-81
2023/05/21 05:57:43;;;;;;;5.53;2.80;;;13.20;99.90;;;;;;5089579;28;20495;-81
2023/05/21 06:00:11;;;;;;;7.78;3.08;;;13.30;99.90;;;;;;5072750;28;20048;-80
2023/05/21 06:02:37;;;;;;;7.03;2.97;;;13.40;99.90;;;;;;5069101;28;20033;-81
2023/05/21 06:05:05;;;;;;;7.20;3.35;;;13.40;99.90;;;;;;5085411;28;20524;-81
2023/05/21 06:07:32;;;;;;;11.10;3.30;;;13.40;99.90;;;;;;5069466;28;20493;-80
2023/05/21 06:09:59;;;;;;;7.65;2.90;;;13.50;99.90;;;;;;5102335;28;20045;-81
2023/05/21 06:12:25;;;;;;;6.68;2.95;;;13.50;99.90;;;;;;5105998;28;20413;-82
2023/05/21 06:14:52;;;;;;;6.78;2.72;;;13.60;99.90;;;;;;5089408;28;20040;-80
2023/05/21 06:17:19;;;;;;;6.18;3.10;;;13.60;99.90;;;;;;5072938;28;20079;-82
2023/05/21 06:19:45;;;;;;;8.95;3.33;;;13.60;99.90;;;;;;5072489;28;20041;-82
2023/05/21 06:22:12;;;;;;;10.52;3.00;;;13.60;99.90;;;;;;5065930;28;20041;-81
2023/05/21 06:24:39;;;;;;;5.43;2.53;;;13.60;99.90;;;;;;5053159;28;20444;-82
2023/05/21 06:27:06;;;;;;;5.95;2.92;;;13.60;99.90;;;;;;5069127;28;20049;-81
2023/05/21 06:29:32;;;;;;;7.45;2.67;;;13.60;99.90;;;;;;5052856;28;20103;-81
2023/05/21 06:32:00;;;;;;;8.48;2.70;;;13.60;99.90;;;;;;5053774;28;20136;-81
2023/05/21 06:34:29;;;;;;;9.90;3.13;;;13.70;99.90;;;;;;5088683;28;20473;-81
2023/05/21 06:36:56;;;;;;;6.55;3.50;;;13.70;99.90;;;;;;5038315;28;20041;-80
2023/05/21 06:39:23;;;;;;;9.13;3.17;;;13.70;99.90;;;;;;5059238;28;20481;-81
2023/05/21 06:41:50;;;;;;;9.95;3.13;;;13.80;99.90;;;;;;5064398;28;20043;-81
2023/05/21 06:44:17;;;;;;;7.40;3.17;;;13.80;99.90;;;;;;5077043;28;20052;-81
2023/05/21 06:46:44;;;;;;;6.15;3.35;;;13.80;99.90;;;;;;5047043;28;20059;-81
2023/05/21 06:49:12;;;;;;;8.45;2.92;;;13.80;99.90;;;;;;5071871;28;20036;-81
2023/05/21 06:51:39;;;;;;;5.53;2.97;;;13.80;99.90;;;;;;5085408;28;20119;-81
2023/05/21 06:54:05;;;;;;;6.78;2.97;;;13.80;99.90;;;;;;5085133;28;20538;-81
2023/05/21 06:56:32;;;;;;;8.30;3.05;;;13.90;99.90;;;;;;5068663;28;20052;-81
2023/05/21 06:58:59;;;;;;;8.52;3.10;;;14.00;99.90;;;;;;5052607;28;20584;-81
2023/05/21 07:01:25;;;;;;;7.40;3.03;;;13.90;99.90;;;;;;5068994;28;20048;-80
2023/05/21 07:03:53;;;;;;;6.50;2.75;;;14.00;99.90;;;;;;5073682;28;20040;-80
2023/05/21 07:06:19;;;;;;;8.15;2.92;;;14.00;99.90;;;;;;5038385;28;20052;-79
2023/05/21 07:08:48;;;;;;;4.63;2.80;;;14.10;99.90;;;;;;5087864;28;20040;-81
2023/05/21 07:11:15;;;;;;;6.85;2.83;;;14.20;99.90;;;;;;5072009;28;20036;-81
2023/05/21 07:13:41;;;;;;;6.72;3.15;;;14.30;99.90;;;;;;5089401;28;20036;-81
2023/05/21 07:16:08;;;;;;;6.25;2.75;;;14.40;99.90;;;;;;5053787;28;20041;-81
2023/05/21 07:18:35;;;;;;;12.65;3.53;;;14.40;99.90;;;;;;5035557;28;20041;-81
2023/05/21 07:21:02;;;;;;;12.07;3.60;;;14.40;99.90;;;;;;5084504;28;20037;-81
2023/05/21 07:23:28;;;;;;;10.25;2.90;;;14.50;99.90;;;;;;5088706;28;20127;-82
2023/05/21 07:25:55;;;;;;;9.52;3.10;;;14.50;99.90;;;;;;5060608;28;20568;-83
2023/05/21 07:28:22;;;;;;;5.38;3.10;;;14.50;99.90;;;;;;5051800;28;20434;-82
2023/05/21 07:30:49;;;;;;;8.07;3.20;;;14.60;99.90;;;;;;5068115;28;20517;-82
2023/05/21 07:33:16;;;;;;;6.63;3.20;;;14.60;99.90;;;;;;5068111;28;20056;-83
2023/05/21 07:35:42;;;;;;;9.68;3.03;;;14.60;99.90;;;;;;5074292;28;20115;-83
2023/05/21 07:38:09;;;;;;;7.20;2.72;;;14.70;99.90;;;;;;5047037;28;20043;-81
2023/05/21 07:40:36;;;;;;;7.20;3.25;;;14.70;99.90;;;;;;5051877;28;20465;-82
2023/05/21 07:43:02;;;;;;;7.75;2.78;;;14.80;99.90;;;;;;5052285;28;20080;-82
2023/05/21 07:45:29;;;;;;;11.50;3.13;;;14.80;99.90;;;;;;5052109;28;20037;-82
2023/05/21 07:47:56;;;;;;;8.52;3.13;;;14.80;99.90;;;;;;5087866;28;20119;-83
2023/05/21 07:50:24;;;;;;;8.38;3.45;;;14.90;99.90;;;;;;5055668;28;20954;-84
2023/05/21 07:52:50;;;;;;;7.75;2.88;;;14.90;99.90;;;;;;5055244;28;20076;-84
2023/05/21 07:55:17;;;;;;;8.48;3.35;;;14.90;99.90;;;;;;5055591;28;20523;-84
2023/05/21 07:57:44;;;;;;;6.53;3.00;;;15.00;99.90;;;;;;5051207;28;20049;-83
2023/05/21 08:00:14;;;;;;;7.40;2.90;;;15.10;99.90;;;;;;5046196;28;20037;-83
2023/05/21 08:02:40;;;;;;;8.65;3.28;;;15.10;99.90;;;;;;5083703;28;20094;-83
2023/05/21 08:05:09;;;;;;;8.38;2.83;;;15.20;99.90;;;;;;5060969;28;20037;-83
2023/05/21 08:07:36;;;;;;;6.18;2.92;;;15.20;99.90;;;;;;5062008;28;20049;-83
2023/05/21 08:10:03;;;;;;;6.82;2.75;;;15.30;99.90;;;;;;5040002;28;20097;-84
2023/05/21 08:12:30;;;;;;;9.82;3.00;;;15.40;99.90;;;;;;5056195;28;20047;-82
2023/05/21 08:14:58;;;;;;;8.63;2.90;;;15.40;99.90;;;;;;5089321;28;20032;-82
2023/05/21 08:17:24;;;;;;;6.50;2.83;;;15.50;99.90;;;;;;5071890;28;20524;-82
2023/05/21 08:19:51;;;;;;;9.85;3.05;;;15.60;99.90;;;;;;5083119;28;20076;-83
2023/05/21 08:22:18;;;;;;;6.90;3.03;;;15.60;99.90;;;;;;5074905;28;20514;-82
2023/05/21 08:24:45;;;;;;;8.23;3.58;;;15.60;99.90;;;;;;5091765;28;20048;-82
2023/05/21 08:27:11;;;;;;;9.18;3.20;;;15.70;99.90;;;;;;5074777;28;20439;-82
2023/05/21 08:29:38;;;;;;;7.38;3.05;;;15.80;99.90;;;;;;5070939;28;20044;-82
2023/05/21 08:32:05;;;;;;;7.13;2.97;;;15.90;99.90;;;;;;5071299;28;20052;-82
2023/05/21 08:34:32;;;;;;;6.93;3.20;;;16.00;99.90;;;;;;5073756;28;20036;-83
2023/05/21 08:36:58;;;;;;;6.40;3.47;;;16.20;99.90;;;;;;5075089;28;20047;-83
2023/05/21 08:39:25;;;;;;;4.30;2.40;;;16.20;99.90;;;;;;5057736;28;20044;-82
2023/05/21 08:42:02;;;;;;;5.82;2.97;;;16.30;99.90;;;;;;5046847;28;20040;-82
2023/05/21 08:44:32;;;;;;;7.68;3.38;;;16.30;99.90;;;;;;5055752;28;20494;-83
2023/05/21 08:47:00;;;;;;;7.90;3.13;;;16.40;99.90;;;;;;5083768;28;20573;-83
2023/05/21 08:49:33;;;;;;;8.10;2.70;;;16.40;99.90;;;;;;5054822;28;20033;-83
2023/05/21 08:52:00;;;;;;;8.18;3.33;;;16.50;99.90;;;;;;5096230;28;20048;-84
2023/05/21 08:54:27;;;;;;;7.45;3.00;;;16.50;99.90;;;;;;5083590;28;20111;-83
2023/05/21 08:56:55;;;;;;;6.97;2.92;;;16.60;99.90;;;;;;5063747;28;20057;-84
2023/05/21 08:59:22;;;;;;;7.38;3.25;;;16.70;99.90;;;;;;5041092;28;20045;-82
2023/05/21 09:01:51;;;;;;;6.60;2.92;;;16.70;99.90;;;;;;5088006;28;20045;-83
2023/05/21 09:04:17;;;;;;;6.95;2.85;;;16.80;99.90;;;;;;5070842;28;20102;-83
2023/05/21 09:06:45;;;;;;;6.68;2.70;;;16.90;99.90;;;;;;5070722;28;20596;-83
2023/05/21 09:09:31;;;;;;;8.07;3.17;;;17.00;99.90;;;;;;5073577;28;20401;-83
2023/05/21 09:11:58;;;;;;;7.20;2.83;;;17.00;99.90;;;;;;5086890;28;20094;-83
2023/05/21 09:14:25;;;;;;;6.63;3.13;;;17.10;99.90;;;;;;5070213;28;20040;-83
2023/05/21 09:16:52;;;;;;;9.43;3.13;;;17.10;99.90;;;;;;5107203;28;20048;-83
2023/05/21 09:19:20;;;;;;;6.13;3.08;;;17.10;99.90;;;;;;5071652;28;20408;-83
2023/05/21 09:21:50;;;;;;;9.20;3.20;;;17.10;99.90;;;;;;5079831;28;20040;-83
2023/05/21 09:24:20;;;;;;;11.10;3.60;;;17.00;99.90;;;;;;5090634;28;20249;-82
2023/05/21 09:26:46;;;;;;;6.03;2.67;;;17.00;99.90;;;;;;5091117;28;20044;-83
2023/05/21 09:29:13;;;;;;;7.18;3.25;;;17.10;99.90;;;;;;5073241;28;20041;-82
2023/05/21 09:31:44;;;;;;;7.18;2.90;;;17.20;99.90;;;;;;5069533;28;20053;-83
2023/05/21 09:34:12;;;;;;;7.25;2.97;;;17.20;99.90;;;;;;5049941;28;20040;-84
2023/05/21 09:36:38;;;;;;;7.50;3.13;;;17.30;99.90;;;;;;5070025;28;20504;-82
2023/05/21 09:39:05;;;;;;;8.77;2.80;;;17.40;99.90;;;;;;5053826;28;20038;-82
2023/05/21 09:41:34;;;;;;;7.65;3.20;;;17.60;99.90;;;;;;5050046;28;20488;-83
2023/05/21 09:44:01;;;;;;;6.07;2.97;;;17.80;99.90;;;;;;5074873;28;20493;-83
2023/05/21 09:46:38;;;;;;;9.77;3.67;;;18.00;99.90;;;;;;5090067;28;20036;-83
2023/05/21 09:49:05;;;;;;;11.60;3.42;;;18.20;99.90;;;;;;5071763;28;20037;-83
2023/05/21 09:51:31;;;;;;;6.20;3.05;;;18.40;99.90;;;;;;5053208;28;20051;-83
2023/05/21 09:53:58;;;;;;;7.75;3.60;;;18.50;99.90;;;;;;5064362;28;20068;-83
2023/05/21 09:56:28;;;;;;;7.80;3.42;;;18.50;99.90;;;;;;5068932;28;20429;-83
2023/05/21 09:58:56;;;;;;;8.10;3.50;;;18.50;99.90;;;;;;5069631;28;20064;-83
2023/05/21 10:01:23;;;;;;;8.85;3.60;;;18.60;99.90;;;;;;5053104;28;20056;-84
2023/05/21 10:03:56;;;;;;;7.07;3.28;;;18.80;99.90;;;;;;5079884;28;20046;-83
2023/05/21 10:06:26;;;;;;;7.85;3.70;;;18.70;99.90;;;;;;5106164;28;20037;-83
2023/05/21 10:08:57;;;;;;;12.60;3.97;;;18.80;99.90;;;;;;5079812;28;20106;-83
2023/05/21 10:11:30;;;;;;;8.20;3.92;;;18.80;99.90;;;;;;5086206;28;20048;-83
2023/05/21 10:14:03;;;;;;;7.57;3.78;;;18.90;99.90;;;;;;5095788;28;20036;-83
2023/05/21 10:16:32;;;;;;;8.40;4.72;;;18.90;99.90;;;;;;5089629;28;20040;-83
2023/05/21 10:19:00;;;;;;;8.18;4.63;;;18.80;99.90;;;;;;5060290;28;20408;-83
2023/05/21 10:21:26;;;;;;;8.57;4.53;;;18.80;99.90;;;;;;5089147;28;20123;-83
2023/05/21 10:23:57;;;;;;;12.25;4.72;;;18.80;99.90;;;;;;5054668;28;20560;-83
2023/05/21 10:26:25;;;;;;;11.23;4.40;;;18.70;99.90;;;;;;5069653;28;20064;-82
2023/05/21 10:28:53;;;;;;;10.55;3.92;;;18.70;99.90;;;;;;5066846;28;20502;-83
2023/05/21 10:31:21;;;;;;;8.07;4.35;;;18.90;99.90;;;;;;5089903;28;20133;-83
2023/05/21 10:33:49;;;;;;;10.57;4.90;;;18.90;99.90;;;;;;5073222;28;20396;-83
2023/05/21 10:36:17;;;;;;;9.00;4.90;;;19.00;99.90;;;;;;5073499;28;20036;-84
2023/05/21 10:38:45;;;;;;;10.68;5.10;;;19.10;99.90;;;;;;5073449;28;20458;-83
2023/05/21 10:41:14;;;;;;;11.70;4.93;;;19.10;99.90;;;;;;5073111;28;20510;-83
2023/05/21 10:44:20;;;;;;;8.20;4.57;;;19.10;99.90;;;;;;5072170;28;20044;-83
2023/05/21 10:46:55;;;;;;;12.52;4.47;;;19.00;99.90;;;;;;5068278;28;20045;-83
2023/05/21 10:49:50;;;;;;;8.10;4.90;;;19.00;99.90;;;;;;5083450;28;20080;-83
2023/05/21 10:53:02;;;;;;;9.20;5.07;;;18.90;99.90;;;;;;5087963;28;20068;-83
2023/05/21 10:55:48;;;;;;;13.35;5.53;;;18.80;99.90;;;;;;5078488;28;20052;-83
2023/05/21 10:58:46;;;;;;;11.45;5.80;;;18.70;99.90;;;;;;5068645;28;20053;-83
2023/05/21 11:01:15;;;;;;;12.65;5.72;;;18.60;99.90;;;;;;5068962;28;20052;-84
2023/05/21 11:03:42;;;;;;;9.77;5.63;;;18.50;99.90;;;;;;5068938;28;20049;-85
2023/05/21 11:06:10;;;;;;;12.07;5.15;;;18.40;99.90;;;;;;5052794;28;20460;-84
2023/05/21 11:08:46;;;;;;;10.27;5.65;;;18.30;99.90;;;;;;5052491;28;20468;-84
2023/05/21 11:11:13;;;;;;;9.77;5.75;;;18.30;99.90;;;;;;5071176;28;20505;-84
2023/05/21 11:13:48;;;;;;;11.13;5.70;;;18.40;99.90;;;;;;5072153;28;20450;-84
2023/05/21 11:16:16;;;;;;;9.32;5.60;;;18.50;99.90;;;;;;5089112;28;20786;-85
2023/05/21 11:18:46;;;;;;;9.18;5.55;;;18.60;99.90;;;;;;5072475;28;20076;-85
2023/05/21 11:21:15;;;;;;;11.30;6.78;;;18.70;99.90;;;;;;5105589;28;20079;-84
2023/05/21 11:23:57;;;;;;;15.13;6.68;;;19.00;99.90;;;;;;5063666;28;20049;-84
2023/05/21 11:26:26;;;;;;;10.88;5.68;;;19.00;99.90;;;;;;5053024;28;20127;-84
2023/05/21 11:29:02;;;;;;;14.52;6.57;;;19.30;99.90;;;;;;5069217;28;20037;-84
2023/05/21 11:31:38;;;;;;;12.43;6.30;;;19.40;99.90;;;;;;5102212;28;20041;-82
2023/05/21 11:34:27;;;;;;;14.10;6.57;;;19.40;99.90;;;;;;5093040;28;20535;-82
2023/05/21 11:37:39;;;;;;;10.38;6.18;;;19.60;99.90;;;;;;5093133;28;20044;-84
2023/05/21 11:40:21;;;;;;;10.57;6.25;;;19.60;99.90;;;;;;5104793;28;20045;-83
2023/05/21 11:42:52;;;;;;;13.63;6.43;;;19.80;99.90;;;;;;5088599;28;20485;-84
2023/05/21 11:45:21;;;;;;;11.50;6.28;;;20.00;99.90;;;;;;5072926;28;20041;-84
2023/05/21 11:47:50;;;;;;;11.98;7.60;;;20.20;99.90;;;;;;5076476;28;20058;-84
2023/05/21 11:50:17;;;;;;;12.68;7.00;;;20.20;99.90;;;;;;5079308;28;20083;-84
2023/05/21 11:52:44;;;;;;;16.13;7.13;;;20.10;99.90;;;;;;5065972;28;20499;-84
2023/05/21 11:55:11;;;;;;;12.30;6.78;;;20.00;99.90;;;;;;5072189;28;20040;-84
2023/05/21 11:57:41;;;;;;;11.38;6.63;;;20.10;99.90;;;;;;5081927;28;20053;-84
2023/05/21 12:00:14;;;;;;;15.25;8.02;;;20.30;99.90;;;;;;5067852;28;20796;-85
2023/05/21 12:02:50;;;;;;;12.40;7.15;;;20.60;99.90;;;;;;5075213;28;20040;-84
2023/05/21 12:05:17;;;;;;;18.38;8.35;;;20.70;99.90;;;;;;5074639;28;20105;-84
2023/05/21 12:07:51;;;;;;;15.75;8.07;;;20.80;99.90;;;;;;5105893;28;20048;-85
2023/05/21 12:10:22;;;;;;;20.58;8.52;;;21.00;99.90;;;;;;5091169;28;20106;-84
2023/05/21 12:12:49;;;;;;;18.95;8.32;;;21.00;99.90;;;;;;5091545;28;20127;-84
2023/05/21 12:15:17;;;;;;;10.38;7.50;;;21.20;99.90;;;;;;5090389;28;20040;-84
2023/05/21 12:17:44;;;;;;;13.93;7.45;;;21.20;99.90;;;;;;5091777;28;20032;-84
2023/05/21 12:20:14;;;;;;;17.08;9.52;;;21.20;99.90;;;;;;5075520;28;20076;-84
2023/05/21 12:22:42;;;;;;;16.25;10.82;;;21.20;99.90;;;;;;5088420;28;20037;-84
2023/05/21 12:25:09;;;;;;;14.45;10.38;;;21.20;99.90;;;;;;5108942;28;20048;-84
2023/05/21 12:27:36;;;;;;;19.02;10.65;;;21.20;99.90;;;;;;5071460;28;20169;-84
2023/05/21 12:30:03;;;;;;;17.80;11.25;;;21.30;99.90;;;;;;5045484;28;20107;-85
2023/05/21 12:32:30;;;;;;;23.00;11.95;;;21.40;99.90;;;;;;5065111;28;20099;-84
2023/05/21 12:34:57;;;;;;;19.83;12.15;;;21.40;99.90;;;;;;5066957;28;20501;-84
2023/05/21 12:37:34;;;;;;;18.10;12.00;;;21.40;99.90;;;;;;5079774;28;20052;-85
2023/05/21 12:40:10;;;;;;;17.40;11.88;;;21.50;99.90;;;;;;5079558;28;20390;-84
2023/05/21 12:42:38;;;;;;;18.08;11.48;;;21.50;99.90;;;;;;5075564;28;20051;-84
2023/05/21 12:45:06;;;;;;;17.83;11.20;;;21.50;99.90;;;;;;5049258;28;20515;-84
2023/05/21 12:47:34;;;;;;;21.10;11.52;;;21.60;99.90;;;;;;5074963;28;20067;-84
2023/05/21 12:50:02;;;;;;;19.42;11.80;;;21.70;99.90;;;;;;5080200;28;20523;-84